< Typhoon 198704 1987 Season Typhoon 198706 >
Typhoon 198705 (THELMA)
General InformationTrack Information on Google MapsDetailed Wind InformationList of All Images || NewsDisaster Info.ResourceGoogle EarthGE AnimationAtom FeedGeoJSON
Detalied Best Track (Time Zone = UTC)
Year Month Day Hour Lat. Long. Pressure (hPa) Wind (kt) Class Image Chart
1987 7 7 00 11.0 150.0 1004 0 2 Image Chart
1987 7 7 06 11.3 149.7 1004 0 2 Image Chart
1987 7 7 12 12.0 149.3 1004 0 2 Image Chart
1987 7 7 18 12.8 149.0 1002 0 2 Image Chart
1987 7 8 00 13.9 148.3 1002 0 2 Image Chart
1987 7 8 06 14.9 147.3 1002 0 2 Image Chart
1987 7 8 12 15.5 146.0 1002 0 2 Image Chart
1987 7 8 18 15.8 144.5 1000 0 2 Image Chart
1987 7 9 00 16.0 142.6 1000 0 2 Image Chart
1987 7 9 06 16.3 141.0 990 45 3 Image Chart
1987 7 9 12 16.5 139.7 985 45 3 Image Chart
1987 7 9 18 16.7 138.4 980 55 4 Image Chart
1987 7 10 00 17.0 136.9 975 60 4 Image Chart
1987 7 10 06 17.4 135.5 970 65 5 Image Chart
1987 7 10 12 17.8 134.0 960 75 5 Image Chart
1987 7 10 18 17.9 132.6 945 85 5 Image Chart
1987 7 11 00 17.9 131.4 930 90 5 Image Chart
1987 7 11 06 17.9 130.2 915 90 5 Image Chart
1987 7 11 12 18.0 128.9 915 100 5 Image Chart
1987 7 11 18 17.8 128.1 920 100 5 Image Chart
1987 7 12 00 17.6 127.4 920 100 5 Image Chart
1987 7 12 06 17.9 126.9 925 100 5 Image Chart
1987 7 12 12 18.4 126.6 935 95 5 Image Chart
1987 7 12 18 19.0 126.3 945 90 5 Image Chart
1987 7 13 00 20.1 126.2 950 80 5 Image Chart
1987 7 13 06 21.0 125.9 950 80 5 Image Chart
1987 7 13 12 22.2 125.6 940 80 5 Image Chart
1987 7 13 18 23.5 125.4 945 80 5 Image Chart
1987 7 14 00 24.9 125.0 950 75 5 Image Chart
1987 7 14 06 26.1 124.8 945 75 5 Image Chart
1987 7 14 12 27.4 124.8 940 75 5 Image Chart
1987 7 14 18 28.7 125.0 945 80 5 Image Chart
1987 7 15 00 29.9 125.5 950 80 5 Image Chart
1987 7 15 06 31.9 126.2 955 80 5 Image Chart
1987 7 15 12 34.1 127.1 970 75 5 Image Chart
1987 7 15 18 36.5 128.2 975 60 4 Image Chart
1987 7 16 00 39.6 129.7 980 60 4 Image Chart
1987 7 16 06 41.5 131.0 980 0 6 Image Chart
1987 7 16 12 43.0 131.0 988 0 6 Image Chart
1987 7 16 18 44.3 131.7 990 0 6 Image Chart
1987 7 17 00 45.6 132.4 992 0 6 Image Chart
1987 7 17 06 46.7 133.0 992 0 6 Image Chart
1987 7 17 12 47.8 133.7 994 0 6 Image Chart
1987 7 17 18 48.8 134.1 996 0 6 Image Chart
1987 7 18 00 49.7 135.0 998 0 6 Image Chart
Japan Meteorological Agency Best Track Data | Correction Date : 1992-10-21
< Typhoon 198704 1987 Season Typhoon 198706 >

Help